aviador You're here:

SABE Decoded Metar

BUENOS AIRES in ARGENTINA
Report Time2018-04-21 07:25:00
UTC Time2018-04-21 07:59:49
Flight Rules ifr IFR
Wind310° at 05 kt
W.Decomp.*RWY 31: 5.0 kt HW 0.6 kt RCW
W.Rank310° ranks 33
Current wind is below 310° avg. (6.9)
Visibility2500 m
Phenomena:Drizzle
Mist
Clouds:Overcast 007 Hf
Expected CloudBase > 400 ft AGL from Temp-Dew spread
Ceiling700 ft
Temp21°C (ISA +6)
Dew Point20°C (94% RH)
QNH1011 hPa
Density Alt1,102 ft
Elevation20 ft
Report Wrong Elevation
Raw Report
SPECI SABE 210725Z 31005KT 2500 DZ BR OVC007 21/20 Q1011 NOSIG=

Extra information for SABE:More info

Metar Taf Metar & Taf Last 4 Metars F.Rules Stats Wind Profile Meteogram Temp Stats Airport Information Weather charts Add Link Nearby VenuesMetar ALERT Operation Metar Decoded Social comments